Terminal Aerodrome Forecast
Issued by NWS

Home | Current Version | Previous Version | Text Only | Print | Product List | Glossary On
Versions: 1 2 3 4 5 6 7 8 9 10 11 12 13
000
FTAK31 PAJN 290535
TAFAPG
TAF
PAPG 290535Z 2906/3006 VRB04KT P6SM -SHRA SCT025 OVC040
     FM290900 24006KT P6SM -SHRA SCT004 SCT025 OVC040
     FM291700 06005KT P6SM -SHRA SCT025 BKN050
     FM300300 11005KT P6SM VCSH SCT030 BKN045
      AMD LTD TO CLD VIS AND WIND 2906/2915=

USA.gov is the U.S. government's official web portal to all federal, state and local government web resources and services.